createdAt,value
2023-05-05T00:00:34.637Z,101395.19
2023-05-05T00:05:36.342Z,101400.34
2023-05-05T00:10:37.895Z,101403.09
2023-05-05T00:15:41.757Z,101405.19
2023-05-05T00:20:44.072Z,101396.56
2023-05-05T00:25:45.705Z,101390.75
2023-05-05T00:30:47.269Z,101400.00
2023-05-05T00:35:48.875Z,101399.50
2023-05-05T00:40:50.585Z,101385.59
2023-05-05T00:46:01.136Z,101399.69
2023-05-05T00:51:02.734Z,101396.44
2023-05-05T00:56:04.617Z,101407.06
2023-05-05T01:01:06.211Z,101377.88
2023-05-05T01:06:15.627Z,101407.06
2023-05-05T01:11:31.073Z,101405.84
2023-05-05T01:16:35.974Z,101395.72
2023-05-05T01:21:41.205Z,101396.94
2023-05-05T01:27:20.114Z,101394.56
2023-05-05T01:32:27.141Z,101368.66
2023-05-05T01:37:37.911Z,101375.34
2023-05-05T01:42:42.309Z,101373.66
2023-05-05T01:47:45.444Z,101354.16
2023-05-05T01:52:47.785Z,101362.97
2023-05-05T01:57:50.447Z,101353.53
2023-05-05T02:02:54.762Z,101347.38
2023-05-05T02:07:59.676Z,101344.66
2023-05-05T02:13:02.866Z,101340.59
2023-05-05T02:18:06.748Z,101399.19
2023-05-05T02:23:08.750Z,101389.59
2023-05-05T02:28:17.037Z,101351.38
2023-05-05T02:33:21.261Z,101361.13
2023-05-05T02:38:27.559Z,101369.00
2023-05-05T02:43:31.537Z,101373.44
2023-05-05T02:48:33.140Z,101394.34
2023-05-05T02:53:34.916Z,101378.44
2023-05-05T02:59:05.336Z,101393.16
2023-05-05T03:04:12.924Z,101374.13
2023-05-05T03:09:21.314Z,101366.56
2023-05-05T03:14:24.780Z,101375.94
2023-05-05T03:19:27.715Z,101390.28
2023-05-05T03:24:29.306Z,101401.88
2023-05-05T03:29:31.021Z,101424.97
2023-05-05T03:34:32.561Z,101425.28
2023-05-05T03:39:34.085Z,101408.34
2023-05-05T03:44:35.682Z,101420.97
2023-05-05T03:49:37.885Z,101426.38
2023-05-05T03:54:39.419Z,101430.25
2023-05-05T03:59:40.964Z,101449.75
2023-05-05T04:04:42.594Z,101460.13
2023-05-05T04:09:47.033Z,101447.25
2023-05-05T04:14:48.572Z,101448.75
2023-05-05T04:19:50.172Z,101453.00
2023-05-05T04:24:51.761Z,101456.03
2023-05-05T04:29:53.278Z,101463.25
2023-05-05T04:34:54.753Z,101471.44
2023-05-05T04:39:56.244Z,101489.59
2023-05-05T04:44:57.704Z,101476.06
2023-05-05T04:49:59.260Z,101484.34
2023-05-05T04:55:01.169Z,101486.50
2023-05-05T05:00:05.120Z,101487.94
2023-05-05T05:05:07.177Z,101484.72
2023-05-05T05:10:09.378Z,101496.25
2023-05-05T05:15:13.037Z,101498.19
2023-05-05T05:20:14.497Z,101500.84
2023-05-05T05:25:16.072Z,101502.97
2023-05-05T05:30:17.569Z,101505.53
2023-05-05T05:35:19.130Z,101500.78
2023-05-05T05:40:20.792Z,101508.69
2023-05-05T05:45:22.358Z,101518.28
2023-05-05T05:50:27.024Z,101516.75
2023-05-05T05:55:28.578Z,101524.78
2023-05-05T06:00:30.129Z,101524.44
2023-05-05T06:05:32.272Z,101530.16
2023-05-05T06:10:34.768Z,101529.94
2023-05-05T06:15:36.546Z,101529.44
2023-05-05T06:20:38.171Z,101529.91
2023-05-05T06:25:39.701Z,101526.38
2023-05-05T06:30:42.454Z,101511.28
2023-05-05T06:35:43.976Z,101522.44
2023-05-05T06:40:48.569Z,101540.25
2023-05-05T06:45:50.220Z,101547.94
2023-05-05T06:50:51.920Z,101540.56
2023-05-05T06:55:53.443Z,101545.28
2023-05-05T07:00:55.048Z,101544.66
2023-05-05T07:05:56.554Z,101543.19
2023-05-05T07:10:58.134Z,101547.59
2023-05-05T07:15:59.859Z,101554.97
2023-05-05T07:21:01.664Z,101548.00
2023-05-05T07:26:03.437Z,101549.34
2023-05-05T07:31:05.101Z,101558.03
2023-05-05T07:36:06.721Z,101567.50
2023-05-05T07:41:08.990Z,101577.22
2023-05-05T07:46:10.584Z,101588.25
2023-05-05T07:51:12.135Z,101573.88
2023-05-05T07:56:13.739Z,101566.59
2023-05-05T08:01:15.817Z,101565.91
2023-05-05T08:06:21.854Z,101564.81
2023-05-05T08:11:23.402Z,101562.34
2023-05-05T08:16:25.034Z,101566.75
2023-05-05T08:21:27.635Z,101566.63
2023-05-05T08:26:29.188Z,101583.56
2023-05-05T08:31:35.209Z,101584.03
2023-05-05T08:36:36.844Z,101589.53
2023-05-05T08:41:38.323Z,101589.66
2023-05-05T08:46:41.600Z,101595.69
2023-05-05T08:51:45.419Z,101610.81
2023-05-05T08:56:49.600Z,101620.81
2023-05-05T09:01:52.885Z,101618.22
2023-05-05T09:06:57.862Z,101616.75
2023-05-05T09:12:00.266Z,101633.13
2023-05-05T09:17:03.186Z,101624.31
2023-05-05T09:22:04.750Z,101635.53
2023-05-05T09:27:21.822Z,101631.84
2023-05-05T09:32:24.439Z,101641.09
2023-05-05T09:37:31.837Z,101638.16
2023-05-05T09:42:33.453Z,101637.19
2023-05-05T09:47:36.445Z,101631.81
2023-05-05T09:52:38.100Z,101636.81
2023-05-05T09:57:39.651Z,101630.50
2023-05-05T10:02:41.929Z,101629.97
2023-05-05T10:07:46.028Z,101630.78
2023-05-05T10:12:49.466Z,101619.66
2023-05-05T10:18:06.048Z,101634.97
2023-05-05T10:23:14.415Z,101624.03
2023-05-05T10:28:39.720Z,101627.81
2023-05-05T10:33:52.108Z,101637.59
2023-05-05T10:38:57.831Z,101628.31
2023-05-05T10:44:02.040Z,101636.31
2023-05-05T10:49:18.102Z,101636.00
2023-05-05T10:54:38.304Z,101638.50
2023-05-05T10:59:41.437Z,101638.50
2023-05-05T11:04:43.006Z,101635.78
2023-05-05T11:10:07.738Z,101630.19
2023-05-05T11:15:28.036Z,101633.00
2023-05-05T11:20:36.054Z,101634.44
2023-05-05T11:25:38.873Z,101624.38
2023-05-05T11:30:58.818Z,101630.75
2023-05-05T11:36:06.777Z,101623.63
2023-05-05T11:41:30.350Z,101627.41
2023-05-05T11:46:31.942Z,101620.00
2023-05-05T11:51:33.432Z,101624.09
2023-05-05T11:56:34.916Z,101620.56
2023-05-05T12:01:41.164Z,101628.00
2023-05-05T12:06:43.329Z,101622.75
2023-05-05T12:11:58.634Z,101621.41
2023-05-05T12:17:09.492Z,101636.59
2023-05-05T12:22:18.464Z,101651.34
2023-05-05T12:27:19.948Z,101658.09
2023-05-05T12:32:26.093Z,101652.88
2023-05-05T12:37:27.727Z,101658.00
2023-05-05T12:42:29.275Z,101653.53
2023-05-05T12:47:34.979Z,101640.91
2023-05-05T12:52:44.612Z,101646.97
2023-05-05T12:58:01.734Z,101642.16
2023-05-05T13:03:04.728Z,101648.88
2023-05-05T13:08:06.354Z,101640.00
2023-05-05T13:13:08.755Z,101637.94
2023-05-05T13:18:10.837Z,101640.19
2023-05-05T13:23:12.374Z,101632.78
2023-05-05T13:28:13.841Z,101633.00
2023-05-05T13:33:15.390Z,101646.56
2023-05-05T13:38:17.094Z,101639.38
2023-05-05T13:43:19.589Z,101634.63
2023-05-05T13:48:21.074Z,101646.81
2023-05-05T13:53:22.595Z,101636.38
2023-05-05T13:58:24.145Z,101640.47
2023-05-05T14:03:25.884Z,101626.06
2023-05-05T14:08:27.358Z,101619.03
2023-05-05T14:13:29.090Z,101618.88
2023-05-05T14:18:30.745Z,101627.25
2023-05-05T14:23:32.607Z,101627.94
2023-05-05T14:28:34.225Z,101633.06
2023-05-05T14:33:35.966Z,101635.66
2023-05-05T14:38:37.434Z,101632.41
2023-05-05T14:43:39.112Z,101635.66
2023-05-05T14:48:40.741Z,101636.16
2023-05-05T14:53:42.285Z,101626.19
2023-05-05T14:58:43.869Z,101621.38
2023-05-05T15:03:45.581Z,101625.88
2023-05-05T15:08:47.286Z,101625.53
2023-05-05T15:13:48.811Z,101617.44
2023-05-05T15:18:50.651Z,101608.47
2023-05-05T15:23:52.186Z,101613.28
2023-05-05T15:28:53.695Z,101605.50
2023-05-05T15:33:55.158Z,101613.25
2023-05-05T15:38:56.761Z,101616.31
2023-05-05T15:43:58.373Z,101626.78
2023-05-05T15:48:59.989Z,101621.81
2023-05-05T15:54:01.645Z,101625.25
2023-05-05T15:59:03.358Z,101616.91
2023-05-05T16:04:04.968Z,101608.63
2023-05-05T16:09:06.501Z,101606.38
2023-05-05T16:14:07.999Z,101607.28
2023-05-05T16:19:09.472Z,101600.13
2023-05-05T16:24:15.937Z,101588.69
2023-05-05T16:29:17.512Z,101582.22
2023-05-05T16:34:19.084Z,101575.50
2023-05-05T16:39:20.587Z,101571.88
2023-05-05T16:44:22.120Z,101571.00
2023-05-05T16:49:24.335Z,101579.75
2023-05-05T16:54:25.844Z,101573.56
2023-05-05T16:59:27.857Z,101576.75
2023-05-05T17:04:30.359Z,101573.47
2023-05-05T17:09:31.908Z,101567.78
2023-05-05T17:14:33.661Z,101577.56
2023-05-05T17:19:35.441Z,101578.97
2023-05-05T17:24:37.401Z,101569.91
2023-05-05T17:29:40.866Z,101576.59
2023-05-05T17:34:42.436Z,101579.50
2023-05-05T17:39:44.011Z,101574.00
2023-05-05T17:44:47.519Z,101566.84
2023-05-05T17:49:49.211Z,101573.75
2023-05-05T17:54:50.867Z,101588.88
2023-05-05T17:59:53.828Z,101587.19
2023-05-05T18:04:55.566Z,101582.03
2023-05-05T18:09:57.179Z,101587.53
2023-05-05T18:14:58.719Z,101597.72
2023-05-05T18:20:00.295Z,101601.16
2023-05-05T18:25:02.802Z,101588.13
2023-05-05T18:30:05.003Z,101592.13
2023-05-05T18:35:07.393Z,101586.97
2023-05-05T18:40:10.149Z,101596.25
2023-05-05T18:45:11.844Z,101594.88
2023-05-05T18:50:13.559Z,101603.16
2023-05-05T18:55:15.106Z,101597.66
2023-05-05T19:00:19.759Z,101606.22
2023-05-05T19:05:21.525Z,101598.03
2023-05-05T19:10:23.103Z,101606.06
2023-05-05T19:15:25.187Z,101604.72
2023-05-05T19:20:26.744Z,101605.03
2023-05-05T19:25:28.280Z,101606.88
2023-05-05T19:30:29.871Z,101613.94
2023-05-05T19:35:31.450Z,101621.63
2023-05-05T19:40:32.928Z,101623.50
2023-05-05T19:45:34.838Z,101632.38
2023-05-05T19:50:36.557Z,101635.66
2023-05-05T19:55:38.276Z,101630.31
2023-05-05T20:00:40.283Z,101638.22
2023-05-05T20:05:42.155Z,101639.41
2023-05-05T20:10:43.672Z,101640.75
2023-05-05T20:15:45.387Z,101638.19
2023-05-05T20:20:46.903Z,101640.41
2023-05-05T20:25:48.627Z,101630.97
2023-05-05T20:30:50.157Z,101637.97
2023-05-05T20:35:51.645Z,101646.38
2023-05-05T20:40:53.386Z,101631.97
2023-05-05T20:45:55.136Z,101640.03
2023-05-05T20:50:58.755Z,101640.69
2023-05-05T20:56:00.822Z,101642.75
2023-05-05T21:01:03.787Z,101641.56
2023-05-05T21:06:05.487Z,101646.38
2023-05-05T21:11:09.986Z,101651.56
2023-05-05T21:16:11.716Z,101642.34
2023-05-05T21:21:14.398Z,101657.06
2023-05-05T21:26:16.073Z,101647.13
2023-05-05T21:31:21.925Z,101647.63
2023-05-05T21:36:24.808Z,101654.09
2023-05-05T21:41:26.899Z,101656.13
2023-05-05T21:46:28.451Z,101652.22
2023-05-05T21:51:29.976Z,101655.81
2023-05-05T21:56:32.253Z,101652.75
2023-05-05T22:01:36.179Z,101650.16
2023-05-05T22:06:37.694Z,101652.91
2023-05-05T22:11:39.300Z,101648.97
2023-05-05T22:16:40.938Z,101635.59
2023-05-05T22:21:42.526Z,101638.88
2023-05-05T22:26:44.233Z,101627.19
2023-05-05T22:31:45.778Z,101628.72
2023-05-05T22:36:48.606Z,101626.47
2023-05-05T22:41:50.168Z,101614.97
2023-05-05T22:46:51.669Z,101623.88
2023-05-05T22:51:53.588Z,101613.91
2023-05-05T22:56:55.112Z,101610.78
2023-05-05T23:01:56.683Z,101616.22
2023-05-05T23:06:58.174Z,101619.09
2023-05-05T23:11:59.699Z,101629.84
2023-05-05T23:17:01.481Z,101622.13
2023-05-05T23:22:04.056Z,101627.34
2023-05-05T23:27:05.582Z,101619.31
2023-05-05T23:32:08.317Z,101623.75
2023-05-05T23:37:09.877Z,101623.56
2023-05-05T23:42:11.477Z,101627.47
2023-05-05T23:47:13.006Z,101621.69
2023-05-05T23:52:14.530Z,101614.69
2023-05-05T23:57:16.436Z,101613.66
